Time;durP1;ratioP1;P1;durP2;ratioP2;P2;SDS_P1;SDS_P2;PMS_P1;PMS_P2;Temp;Humidity;BMP_temperature;BMP_pressure;BME280_temperature;BME280_humidity;BME280_pressure;Samples;Min_cycle;Max_cycle;Signal;HPM_P1;HPM_P2
2022/02/16 00:00:19;;;;;;;20.08;12.33;;;;;;;-3.20;100.00;101895.77;1734898;81;21059;-87
2022/02/16 00:02:49;;;;;;;19.02;12.30;;;;;;;-3.21;100.00;101898.33;1759478;81;21490;-86
2022/02/16 00:05:18;;;;;;;22.75;13.78;;;;;;;-3.22;100.00;101888.98;1759995;81;21162;-88
2022/02/16 00:07:47;;;;;;;22.13;12.00;;;;;;;-3.25;100.00;101884.73;1759645;81;21656;-87
2022/02/16 00:10:17;;;;;;;25.65;14.55;;;;;;;-3.28;100.00;101880.89;1760008;80;20985;-87
2022/02/16 00:12:47;;;;;;;22.55;13.78;;;;;;;-3.28;100.00;101878.75;1783076;80;21053;-87
2022/02/16 00:15:15;;;;;;;20.77;13.78;;;;;;;-3.29;100.00;101874.52;1761219;81;21036;-91
2022/02/16 00:17:46;;;;;;;25.48;14.58;;;;;;;-3.32;100.00;101870.24;1761395;81;21782;-87
2022/02/16 00:20:14;;;;;;;21.45;14.07;;;;;;;-3.31;100.00;101873.22;1738498;81;21555;-87
2022/02/16 00:22:41;;;;;;;29.75;16.60;;;;;;;-3.30;100.00;101873.66;1761190;81;21040;-87
2022/02/16 00:25:10;;;;;;;30.02;18.77;;;;;;;-3.27;100.00;101876.22;1699541;84;21001;-86
2022/02/16 00:27:38;;;;;;;30.15;19.73;;;;;;;-3.25;100.00;101874.53;1722876;83;21105;-88
2022/02/16 00:30:07;;;;;;;30.32;18.02;;;;;;;-3.23;100.00;101872.82;1723147;83;21125;-87
2022/02/16 00:32:35;;;;;;;34.25;18.95;;;;;;;-3.22;100.00;101871.14;1723035;83;21080;-86
2022/02/16 00:35:02;;;;;;;38.92;20.97;;;;;;;-3.20;100.00;101870.30;1723006;83;21504;-86
2022/02/16 00:37:29;;;;;;;40.45;23.27;;;;;;;-3.21;100.00;101867.31;1722882;83;21033;-88
2022/02/16 00:39:57;;;;;;;42.05;23.73;;;;;;;-3.21;100.00;101866.04;1723000;83;21060;-87
2022/02/16 00:42:25;;;;;;;38.13;22.17;;;;;;;-3.20;100.00;101865.60;1722801;83;21391;-87
2022/02/16 00:44:52;;;;;;;36.90;21.07;;;;;;;-3.20;100.00;101866.88;1722888;83;21101;-87
2022/02/16 00:47:20;;;;;;;31.10;20.43;;;;;;;-3.14;100.00;101869.87;1722757;83;21353;-89
2022/02/16 00:49:47;;;;;;;33.50;20.17;;;;;;;-3.14;100.00;101864.36;1724166;81;21054;-88
2022/02/16 00:52:15;;;;;;;32.48;20.15;;;;;;;-3.10;100.00;101860.13;1762805;80;20943;-87
2022/02/16 00:54:42;;;;;;;34.15;21.27;;;;;;;-3.09;100.00;101859.28;1761591;81;21211;-86
2022/02/16 00:57:09;;;;;;;36.08;20.25;;;;;;;-3.06;100.00;101860.13;1786676;80;21037;-88
2022/02/16 00:59:38;;;;;;;33.55;20.00;;;;;;;-3.07;100.00;101858.83;1786150;80;21041;-87
2022/02/16 01:02:07;;;;;;;34.60;20.43;;;;;;;-3.06;100.00;101860.13;1786664;80;21033;-88
2022/02/16 01:04:34;;;;;;;34.27;20.23;;;;;;;-3.04;100.00;101855.86;1762227;80;21040;-88
2022/02/16 01:07:04;;;;;;;34.70;21.73;;;;;;;-3.06;100.00;101860.54;1786467;80;21077;-90
2022/02/16 01:09:32;;;;;;;33.78;20.05;;;;;;;-3.07;100.00;101860.98;1785897;80;21071;-87
2022/02/16 01:12:00;;;;;;;36.75;23.40;;;;;;;-3.09;100.00;101869.03;1786427;80;21045;-89
2022/02/16 01:14:29;;;;;;;34.95;21.45;;;;;;;-3.07;100.00;101863.53;1757954;80;21042;-85
2022/02/16 01:17:17;;;;;;;46.80;25.77;;;;;;;-3.05;100.00;101859.70;1785994;79;21061;-86
2022/02/16 01:19:49;;;;;;;42.55;23.98;;;;;;;-3.04;100.00;101856.30;1782610;80;21499;-85
2022/02/16 01:22:16;;;;;;;45.85;25.40;;;;;;;-3.10;100.00;101858.85;1785887;80;21065;-87
2022/02/16 01:24:44;;;;;;;52.00;28.02;;;;;;;-3.13;100.00;101860.11;1786152;80;20977;-87
2022/02/16 01:27:14;;;;;;;47.03;27.37;;;;;;;-3.19;100.00;101857.98;1785912;79;20990;-86
2022/02/16 01:29:43;;;;;;;46.00;26.05;;;;;;;-3.24;100.00;101860.09;1761722;80;21550;-87
2022/02/16 01:32:11;;;;;;;45.03;24.32;;;;;;;-3.27;100.00;101859.66;1778584;79;21234;-87
2022/02/16 01:34:39;;;;;;;53.02;27.62;;;;;;;-3.30;100.00;101852.00;1786613;79;21127;-87
2022/02/16 01:37:07;;;;;;;50.95;27.50;;;;;;;-3.30;100.00;101857.09;1786315;79;21052;-87
2022/02/16 01:39:34;;;;;;;51.42;27.98;;;;;;;-3.33;100.00;101852.02;1786203;80;21024;-86
2022/02/16 01:42:03;;;;;;;50.35;27.67;;;;;;;-3.35;100.00;101862.61;1786215;80;21610;-90
2022/02/16 01:44:30;;;;;;;46.63;27.20;;;;;;;-3.36;100.00;101850.72;1786382;79;21785;-89
2022/02/16 01:47:05;;;;;;;55.03;29.98;;;;;;;-3.37;100.00;101852.83;1761612;80;21128;-85
2022/02/16 01:49:35;;;;;;;51.92;28.77;;;;;;;-3.35;100.00;101858.79;1782959;80;21049;-85
2022/02/16 01:52:04;;;;;;;61.60;32.40;;;;;;;-3.33;100.00;101854.56;1786149;79;21022;-87
2022/02/16 01:54:33;;;;;;;58.63;30.45;;;;;;;-3.25;100.00;101860.52;1783381;80;21669;-87
2022/02/16 01:57:01;;;;;;;67.05;34.35;;;;;;;-3.17;100.00;101855.42;1737235;80;21399;-86
2022/02/16 01:59:31;;;;;;;68.70;33.65;;;;;;;-3.12;100.00;101859.27;1782389;80;20998;-87
2022/02/16 02:02:13;;;;;;;66.47;33.95;;;;;;;-3.08;100.00;101858.00;1786043;80;21062;-87
2022/02/16 02:04:41;;;;;;;69.25;33.40;;;;;;;-3.01;100.00;101858.43;1786664;79;21010;-86
2022/02/16 02:07:10;;;;;;;69.22;34.95;;;;;;;-2.94;100.00;101852.92;1785899;79;21069;-87
2022/02/16 02:09:38;;;;;;;72.25;35.55;;;;;;;-2.88;100.00;101851.65;1761894;80;21117;-87
2022/02/16 02:12:05;;;;;;;78.97;38.63;;;;;;;-2.81;100.00;101856.34;1786221;80;21021;-86
2022/02/16 02:14:34;;;;;;;85.05;38.85;;;;;;;-2.76;100.00;101846.11;1782588;80;21021;-89
2022/02/16 02:17:06;;;;;;;82.37;38.95;;;;;;;-2.73;100.00;101848.67;1698034;83;21049;-87
2022/02/16 02:19:34;;;;;;;73.83;36.73;;;;;;;-2.70;100.00;101861.00;1734084;82;21148;-87
2022/02/16 02:22:02;;;;;;;78.07;35.68;;;;;;;-2.65;100.00;101863.55;1710264;82;21085;-86
2022/02/16 02:24:30;;;;;;;72.82;35.88;;;;;;;-2.62;100.00;101858.88;1710464;82;21073;-86
2022/02/16 02:26:57;;;;;;;89.32;40.58;;;;;;;-2.61;100.00;101855.47;1735691;82;21025;-86
2022/02/16 02:29:24;;;;;;;81.12;37.75;;;;;;;-2.58;100.00;101858.03;1736115;82;21003;-86
2022/02/16 02:31:53;;;;;;;80.77;36.77;;;;;;;-2.54;100.00;101861.86;1706756;82;21146;-86
2022/02/16 02:34:20;;;;;;;95.20;42.60;;;;;;;-2.50;100.00;101863.11;1736085;82;21136;-86
2022/02/16 02:36:47;;;;;;;90.57;40.10;;;;;;;-2.48;100.00;101857.59;1735754;82;21040;-85
2022/02/16 02:39:14;;;;;;;102.22;43.33;;;;;;;-2.50;100.00;101849.95;1736147;82;21077;-86
2022/02/16 02:41:42;;;;;;;83.52;37.78;;;;;;;-2.50;100.00;101855.05;1710297;82;21514;-86
2022/02/16 02:44:09;;;;;;;84.60;37.40;;;;;;;-2.49;100.00;101858.03;1710363;82;21495;-87
2022/02/16 02:46:37;;;;;;;95.97;40.40;;;;;;;-2.44;100.00;101853.77;1736344;82;21153;-89
2022/02/16 02:49:09;;;;;;;93.80;41.70;;;;;;;-2.41;100.00;101851.63;1710578;82;21017;-88
2022/02/16 02:51:36;;;;;;;81.25;36.13;;;;;;;-2.39;100.00;101850.77;1735538;82;21584;-87
2022/02/16 02:54:04;;;;;;;84.13;37.67;;;;;;;-2.39;100.00;101844.83;1710627;82;21068;-89
2022/02/16 02:56:33;;;;;;;87.47;41.08;;;;;;;-2.38;100.00;101851.64;1707030;82;21036;-87
2022/02/16 02:59:00;;;;;;;92.37;37.98;;;;;;;-2.35;100.00;101850.34;1710553;82;21053;-88
2022/02/16 03:01:27;;;;;;;91.97;37.85;;;;;;;-2.32;100.00;101848.23;1710507;82;21013;-86
2022/02/16 03:03:54;;;;;;;85.10;38.83;;;;;;;-2.30;100.00;101841.00;1735768;82;21061;-87
2022/02/16 03:06:21;;;;;;;88.85;39.58;;;;;;;-2.29;100.00;101838.00;1735905;82;21100;-84
2022/02/16 03:08:50;;;;;;;83.25;37.17;;;;;;;-2.28;100.00;101844.37;1710460;82;21029;-92
2022/02/16 03:11:19;;;;;;;72.47;34.23;;;;;;;-2.25;100.00;101847.37;1735813;82;21557;-90
2022/02/16 03:13:49;;;;;;;75.57;36.47;;;;;;;-2.20;100.00;101847.36;1758278;81;21045;-86
2022/02/16 03:16:21;;;;;;;72.32;34.83;;;;;;;-2.16;100.00;101846.48;1756299;81;21065;-89
2022/02/16 03:18:48;;;;;;;78.42;36.53;;;;;;;-2.15;100.00;101850.30;1735894;81;20993;-86
2022/02/16 03:21:15;;;;;;;72.12;32.95;;;;;;;-2.13;100.00;101852.88;1759611;81;21140;-87
2022/02/16 03:23:43;;;;;;;69.07;32.08;;;;;;;-2.14;100.00;101848.62;1759862;81;21168;-86
2022/02/16 03:26:10;;;;;;;71.02;33.63;;;;;;;-2.20;100.00;101854.58;1736432;81;21283;-87
2022/02/16 03:28:38;;;;;;;69.10;32.17;;;;;;;-2.19;100.00;101855.41;1736522;81;21060;-86
2022/02/16 03:31:26;;;;;;;61.50;29.90;;;;;;;-2.17;100.00;101852.44;1730565;81;21037;-86
2022/02/16 03:34:01;;;;;;;63.20;31.75;;;;;;;-2.17;100.00;101853.72;1760544;81;21049;-86
2022/02/16 03:36:29;;;;;;;59.80;31.12;;;;;;;-2.18;100.00;101848.19;1736177;81;21064;-90
2022/02/16 03:38:57;;;;;;;61.90;30.48;;;;;;;-2.18;100.00;101846.50;1760048;81;21025;-92
2022/02/16 03:41:26;;;;;;;58.17;29.55;;;;;;;-2.15;100.00;101841.81;1732422;81;21574;-87
2022/02/16 03:43:56;;;;;;;59.48;31.20;;;;;;;-2.15;100.00;101855.84;1735542;80;21009;-86
2022/02/16 03:46:26;;;;;;;60.92;30.00;;;;;;;-2.15;100.00;101860.52;1759042;81;21016;-87
2022/02/16 03:48:53;;;;;;;73.70;34.23;;;;;;;-2.12;100.00;101858.38;1760078;81;21120;-87
2022/02/16 03:51:20;;;;;;;64.58;29.98;;;;;;;-2.09;100.00;101857.10;1759990;81;21037;-88
2022/02/16 03:53:49;;;;;;;70.80;33.80;;;;;;;-2.09;100.00;101852.00;1760163;81;21021;-86
2022/02/16 03:56:16;;;;;;;88.37;39.27;;;;;;;-2.09;100.00;101860.93;1734209;81;21093;-87
2022/02/16 03:58:43;;;;;;;86.78;38.02;;;;;;;-2.07;100.00;101854.13;1759989;81;21661;-87
2022/02/16 04:01:10;;;;;;;77.45;35.13;;;;;;;-2.07;100.00;101843.92;1735863;81;21034;-87
2022/02/16 04:03:38;;;;;;;79.67;34.25;;;;;;;-2.04;100.00;101850.71;1740781;81;21430;-88
2022/02/16 04:06:05;;;;;;;84.90;36.42;;;;;;;-2.00;100.00;101851.98;1718467;82;21665;-87
2022/02/16 04:08:33;;;;;;;88.85;37.98;;;;;;;-2.00;100.00;101854.53;1741593;82;21137;-86
2022/02/16 04:11:01;;;;;;;89.47;39.10;;;;;;;-1.98;100.00;101854.11;1741048;82;21017;-87
2022/02/16 04:13:28;;;;;;;90.10;38.38;;;;;;;-1.97;100.00;101852.39;1769870;79;21093;-88
2022/02/16 04:15:56;;;;;;;83.10;37.85;;;;;;;-1.97;100.00;101856.22;1773718;79;21049;-86
2022/02/16 04:18:23;;;;;;;93.47;39.38;;;;;;;-2.00;100.00;101849.86;1761797;80;21672;-87
2022/02/16 04:20:51;;;;;;;98.07;38.30;;;;;;;-2.02;100.00;101852.40;1776341;80;21041;-85
2022/02/16 04:23:20;;;;;;;80.77;35.13;;;;;;;-2.01;100.00;101851.55;1773769;80;21045;-88
2022/02/16 04:25:47;;;;;;;83.62;35.85;;;;;;;-2.00;100.00;101849.42;1761762;80;21360;-86
2022/02/16 04:28:14;;;;;;;86.25;38.70;;;;;;;-2.01;100.00;101850.72;1773302;79;21069;-86
2022/02/16 04:30:42;;;;;;;82.08;36.23;;;;;;;-2.02;100.00;101848.57;1776259;80;21022;-87
2022/02/16 04:33:09;;;;;;;86.57;37.42;;;;;;;-2.00;100.00;101846.87;1781076;80;22313;-86
2022/02/16 04:35:36;;;;;;;84.00;35.48;;;;;;;-1.99;100.00;101842.60;1758817;80;21100;-86
2022/02/16 04:38:04;;;;;;;98.07;38.70;;;;;;;-1.96;100.00;101839.61;1759139;80;21136;-84
2022/02/16 04:40:31;;;;;;;85.65;36.80;;;;;;;-1.96;100.00;101844.72;1733728;80;21771;-85
2022/02/16 04:43:03;;;;;;;103.80;40.70;;;;;;;-1.88;100.00;101842.59;1780913;79;21025;-89
2022/02/16 04:45:28;;;;;;;130.47;38.65;;;;;;;-1.72;100.00;101846.75;1777786;80;21048;-84
2022/02/16 04:47:56;;;;;;;111.55;41.65;;;;;;;-1.23;100.00;101855.90;1759099;80;21052;-84
2022/02/16 04:50:23;;;;;;;98.82;41.90;;;;;;;-0.88;100.00;101850.13;1758922;80;21283;-84
2022/02/16 04:52:54;;;;;;;105.75;41.20;;;;;;;-0.66;100.00;101845.25;1780611;79;21053;-84
2022/02/16 04:55:24;;;;;;;95.10;41.08;;;;;;;-0.51;100.00;101851.09;1746224;80;21048;-84
2022/02/16 04:57:53;;;;;;;91.75;36.73;;;;;;;-0.38;100.00;101845.42;1781308;80;21464;-84
2022/02/16 05:00:23;;;;;;;91.47;37.60;;;;;;;-0.25;100.00;101842.31;1781834;80;21072;-82
2022/02/16 05:02:51;;;;;;;98.27;37.28;;;;;;;-0.10;100.00;101849.00;1786233;80;21127;-82
2022/02/16 05:05:19;;;;;;;83.82;37.15;;;;;;;-0.07;100.00;101852.38;1746933;81;21491;-82
2022/02/16 05:07:47;;;;;;;77.25;33.88;;;;;;;-0.08;100.00;101848.11;1710582;82;33606;-83
2022/02/16 05:10:15;;;;;;;84.52;36.58;;;;;;;-0.10;100.00;101842.16;1725164;82;21048;-84
2022/02/16 05:12:44;;;;;;;92.40;36.73;;;;;;;-0.30;100.00;101841.08;1733630;81;21040;-89
2022/02/16 05:15:11;;;;;;;82.05;33.40;;;;;;;-0.57;100.00;101844.34;1740831;80;21776;-89
2022/02/16 05:17:38;;;;;;;91.45;36.23;;;;;;;-0.78;100.00;101852.17;1763025;81;21610;-89
2022/02/16 05:20:08;;;;;;;74.70;32.05;;;;;;;-0.94;100.00;101851.45;1754487;81;21099;-85
2022/02/16 05:22:35;;;;;;;74.22;34.63;;;;;;;-1.09;100.00;101853.27;1753748;81;21037;-85
2022/02/16 05:25:03;;;;;;;84.05;35.33;;;;;;;-1.21;100.00;101849.08;1757611;80;21059;-84
2022/02/16 05:27:31;;;;;;;91.55;36.53;;;;;;;-1.27;100.00;101858.91;1732017;81;21074;-84
2022/02/16 05:29:58;;;;;;;84.85;37.08;;;;;;;-1.34;100.00;101858.52;1704245;81;21101;-84
2022/02/16 05:32:25;;;;;;;84.30;34.85;;;;;;;-1.37;100.00;101858.97;1772784;80;21061;-84
2022/02/16 05:34:53;;;;;;;81.60;34.70;;;;;;;-1.39;100.00;101864.06;1762755;81;21564;-86
2022/02/16 05:37:20;;;;;;;80.00;34.85;;;;;;;-1.41;100.00;101863.25;1726411;82;21590;-84
2022/02/16 05:39:48;;;;;;;78.05;33.38;;;;;;;-1.46;100.00;101855.61;1762634;81;21143;-87
2022/02/16 05:42:16;;;;;;;74.95;33.35;;;;;;;-1.50;100.00;101848.80;1736202;81;20977;-86
2022/02/16 05:44:51;;;;;;;85.62;35.85;;;;;;;-1.56;100.00;101852.66;1757035;81;21636;-87
2022/02/16 05:47:19;;;;;;;85.05;35.03;;;;;;;-1.59;100.00;101847.14;1761803;80;20997;-85
2022/02/16 05:49:51;;;;;;;84.75;35.17;;;;;;;-1.60;100.00;101832.67;1730229;82;21009;-85
2022/02/16 05:52:18;;;;;;;83.78;35.50;;;;;;;-1.62;100.00;101825.44;1739219;81;21833;-85
2022/02/16 05:54:46;;;;;;;83.82;36.03;;;;;;;-1.63;100.00;101841.61;1751307;81;20986;-85
2022/02/16 05:57:13;;;;;;;81.12;33.60;;;;;;;-1.63;100.00;101853.11;1740320;81;20989;-86
2022/02/16 05:59:40;;;;;;;77.03;33.42;;;;;;;-1.59;100.00;101888.43;1750292;80;21513;-84
2022/02/16 06:02:07;;;;;;;78.20;33.30;;;;;;;-1.55;100.00;101877.36;1753874;80;21040;-85
2022/02/16 06:04:35;;;;;;;72.32;32.65;;;;;;;-1.51;100.00;101889.69;1748451;80;21309;-86
2022/02/16 06:07:03;;;;;;;79.22;33.00;;;;;;;-1.50;100.00;101885.84;1751223;81;21131;-87
2022/02/16 06:09:31;;;;;;;77.32;33.00;;;;;;;-1.47;100.00;101878.17;1740224;81;21024;-84
2022/02/16 06:11:58;;;;;;;78.10;34.53;;;;;;;-1.43;100.00;101877.73;1750479;80;21071;-85
2022/02/16 06:14:25;;;;;;;79.75;35.63;;;;;;;-1.37;100.00;101872.58;1753809;81;21021;-85
2022/02/16 06:16:56;;;;;;;80.77;36.97;;;;;;;-1.31;100.00;101871.70;1737111;81;21999;-85
2022/02/16 06:19:23;;;;;;;89.03;44.18;;;;;;;-1.31;100.00;101883.20;1733703;81;21043;-85
2022/02/16 06:21:51;;;;;;;88.37;43.63;;;;;;;-1.28;100.00;101880.20;1730899;82;21037;-85
2022/02/16 06:24:20;;;;;;;76.55;35.50;;;;;;;-1.24;100.00;101871.25;1755520;80;21497;-85
2022/02/16 06:26:47;;;;;;;66.72;32.35;;;;;;;-1.23;100.00;101875.08;1731014;82;21108;-85
2022/02/16 06:29:19;;;;;;;62.03;29.77;;;;;;;-1.20;100.00;101872.48;1754213;79;21729;-89
2022/02/16 06:32:03;;;;;;;66.00;31.10;;;;;;;-1.12;100.00;101868.61;1642536;86;21119;-86
2022/02/16 06:34:31;;;;;;;63.13;30.72;;;;;;;-1.02;100.00;101864.28;1703227;80;21556;-86
2022/02/16 06:37:00;;;;;;;57.20;28.73;;;;;;;-0.98;100.00;101866.81;1761629;80;21036;-86
2022/02/16 06:39:28;;;;;;;61.70;29.57;;;;;;;-0.92;100.00;101863.36;1760254;80;21018;-86
2022/02/16 06:41:57;;;;;;;56.63;29.35;;;;;;;-0.83;100.00;101867.55;1727333;82;22485;-85
2022/02/16 06:44:25;;;;;;;65.60;30.97;;;;;;;-0.77;100.00;101862.41;1749712;81;21061;-86
2022/02/16 06:46:53;;;;;;;60.52;29.55;;;;;;;-0.70;100.00;101861.50;1736905;80;21346;-91
2022/02/16 06:49:21;;;;;;;61.65;30.92;;;;;;;-0.62;100.00;101861.87;1786558;80;21460;-89
2022/02/16 06:51:51;;;;;;;57.38;29.52;;;;;;;-0.58;100.00;101852.01;1764837;80;21029;-87
2022/02/16 06:54:18;;;;;;;64.62;30.50;;;;;;;-0.57;100.00;101856.27;1779322;80;21177;-87
2022/02/16 06:56:47;;;;;;;68.70;33.65;;;;;;;-0.60;100.00;101853.75;1775234;80;21072;-87
2022/02/16 06:59:22;;;;;;;67.35;33.92;;;;;;;-0.65;100.00;101852.06;1724854;82;21049;-85
2022/02/16 07:01:51;;;;;;;58.75;31.42;;;;;;;-0.71;100.00;101853.41;1718639;83;21523;-87
2022/02/16 07:04:19;;;;;;;61.48;29.60;;;;;;;-0.74;100.00;101850.02;1755418;80;21062;-87
2022/02/16 07:06:46;;;;;;;49.83;27.40;;;;;;;-0.74;100.00;101846.19;1733918;81;21122;-86
2022/02/16 07:09:17;;;;;;;54.38;28.38;;;;;;;-0.73;100.00;101844.89;1754866;80;21062;-90
2022/02/16 07:11:47;;;;;;;47.20;26.87;;;;;;;-0.73;100.00;101847.45;1757887;81;21094;-90
2022/02/16 07:14:17;;;;;;;50.40;28.67;;;;;;;-0.73;100.00;101844.05;1751840;81;21574;-87
2022/02/16 07:16:45;;;;;;;55.85;27.35;;;;;;;-0.71;100.00;101846.14;1749222;81;21021;-87
2022/02/16 07:19:12;;;;;;;50.17;26.80;;;;;;;-0.70;100.00;101844.88;1740774;82;21128;-88
2022/02/16 07:21:43;;;;;;;53.13;29.07;;;;;;;-0.65;100.00;101853.79;1724344;81;21085;-86
2022/02/16 07:24:11;;;;;;;46.28;26.45;;;;;;;-0.62;100.00;101852.47;1761795;81;21141;-85
2022/02/16 07:26:39;;;;;;;49.20;26.27;;;;;;;-0.60;100.00;101853.75;1761537;81;21552;-87
2022/02/16 07:29:08;;;;;;;45.40;26.48;;;;;;;-0.59;100.00;101854.14;1764720;80;21570;-86
2022/02/16 07:31:37;;;;;;;43.40;23.12;;;;;;;-0.56;100.00;101857.97;1767596;80;21169;-88
2022/02/16 07:34:05;;;;;;;59.88;32.10;;;;;;;-0.53;100.00;101847.72;1759191;80;21018;-88
2022/02/16 07:36:32;;;;;;;53.70;29.23;;;;;;;-0.55;100.00;101831.08;1756632;81;21563;-87
2022/02/16 07:39:01;;;;;;;50.98;27.22;;;;;;;-0.58;100.00;101831.53;1754518;81;21053;-86
2022/02/16 07:41:30;;;;;;;49.65;28.77;;;;;;;-0.56;100.00;101831.94;1758488;81;21139;-90
2022/02/16 07:44:02;;;;;;;53.00;29.52;;;;;;;-0.55;100.00;101827.69;1746817;81;22205;-87
2022/02/16 07:46:31;;;;;;;45.08;24.95;;;;;;;-0.53;100.00;101823.41;1725916;80;21069;-87
2022/02/16 07:48:58;;;;;;;39.98;23.87;;;;;;;-0.45;100.00;101825.88;1759904;81;21069;-88
2022/02/16 07:51:30;;;;;;;40.17;24.47;;;;;;;-0.42;100.00;101825.41;1754649;81;20998;-88
2022/02/16 07:54:16;;;;;;;44.45;26.02;;;;;;;-0.38;100.00;101830.94;1756728;81;21037;-87
2022/02/16 07:56:45;;;;;;;40.43;23.32;;;;;;;-0.36;100.00;101826.63;1760173;81;21597;-87
2022/02/16 07:59:12;;;;;;;43.55;25.62;;;;;;;-0.34;100.00;101822.34;1760015;81;21127;-88
2022/02/16 08:01:39;;;;;;;41.60;25.08;;;;;;;-0.32;100.00;101821.91;1760028;81;21614;-87
2022/02/16 08:04:15;;;;;;;42.62;26.00;;;;;;;-0.32;100.00;101816.79;1746810;81;21045;-88
2022/02/16 08:06:47;;;;;;;45.33;26.27;;;;;;;-0.30;100.00;101818.48;1734897;81;21534;-88
2022/02/16 08:09:16;;;;;;;40.63;24.43;;;;;;;-0.32;100.00;101814.23;1736753;81;21143;-88
2022/02/16 08:11:47;;;;;;;42.80;25.25;;;;;;;-0.33;100.00;101811.70;1760009;81;20994;-87
2022/02/16 08:14:15;;;;;;;43.68;25.23;;;;;;;-0.34;100.00;101810.83;1728866;82;21072;-88
2022/02/16 08:16:48;;;;;;;47.67;26.10;;;;;;;-0.32;100.00;101806.55;1736869;82;21088;-88
2022/02/16 08:19:15;;;;;;;44.60;27.00;;;;;;;-0.32;100.00;101801.84;1710941;81;21118;-87
2022/02/16 08:21:44;;;;;;;50.52;28.45;;;;;;;-0.33;100.00;101793.78;1756595;80;21664;-88
2022/02/16 08:24:14;;;;;;;54.95;29.30;;;;;;;-0.32;100.00;101792.47;1733717;81;21068;-91
2022/02/16 08:26:41;;;;;;;54.73;29.95;;;;;;;-0.34;100.00;101787.79;1733807;81;21084;-88
2022/02/16 08:29:10;;;;;;;48.13;28.62;;;;;;;-0.37;100.00;101782.72;1757842;80;21065;-88
2022/02/16 08:31:37;;;;;;;53.85;29.50;;;;;;;-0.36;100.00;101779.27;1756670;80;22644;-87
2022/02/16 08:34:14;;;;;;;52.90;29.20;;;;;;;-0.32;100.00;101783.92;1756267;80;21771;-88
2022/02/16 08:36:55;;;;;;;58.33;29.90;;;;;;;-0.26;100.00;101785.16;1730943;81;21295;-88
2022/02/16 08:39:18;;;;;;;52.30;28.67;;;;;;;-0.22;100.00;101785.97;1721178;82;21084;-87
2022/02/16 08:41:45;;;;;;;52.13;29.10;;;;;;;-0.18;100.00;101774.81;1727629;81;21179;-86
2022/02/16 08:44:12;;;;;;;50.10;29.05;;;;;;;-0.07;100.00;101781.09;1727663;81;21009;-89
2022/02/16 08:46:39;;;;;;;51.28;28.98;;;;;;;-0.03;100.00;101768.67;1709160;81;21092;-89
2022/02/16 08:49:09;;;;;;;52.13;28.98;;;;;;;0.05;100.00;101767.28;1733765;81;21013;-88
2022/02/16 08:51:42;;;;;;;56.37;32.05;;;;;;;0.13;100.00;101770.59;1752819;80;21016;-89
2022/02/16 08:54:10;;;;;;;57.98;31.05;;;;;;;0.18;100.00;101766.28;1756419;80;21044;-88
2022/02/16 08:56:38;;;;;;;52.67;30.48;;;;;;;0.21;100.00;101771.34;1727743;81;21024;-88
2022/02/16 08:59:07;;;;;;;57.05;31.10;;;;;;;0.24;100.00;101769.20;1756861;80;21162;-87
2022/02/16 09:01:35;;;;;;;52.75;28.32;;;;;;;0.25;100.00;101765.33;1719575;81;21550;-88
2022/02/16 09:04:04;;;;;;;50.65;27.55;;;;;;;0.25;100.00;101764.05;1742528;81;21608;-88
2022/02/16 09:06:33;;;;;;;47.40;28.00;;;;;;;0.25;100.00;101767.89;1757852;80;21036;-88
2022/02/16 09:09:02;;;;;;;48.13;28.15;;;;;;;0.30;100.00;101765.27;1733089;80;21553;-90
2022/02/16 09:11:29;;;;;;;75.67;29.05;;;;;;;0.32;100.00;101754.57;1733055;81;21037;-85
2022/02/16 09:13:59;;;;;;;49.50;26.48;;;;;;;0.64;100.00;101745.56;1760450;80;21073;-84
2022/02/16 09:16:26;;;;;;;54.50;28.87;;;;;;;1.84;100.00;101747.69;1781572;78;21601;-84
2022/02/16 09:18:53;;;;;;;82.20;29.87;;;;;;;2.45;100.00;101745.94;1785480;80;21058;-83
2022/02/16 09:21:21;;;;;;;59.50;31.75;;;;;;;2.70;100.00;101745.36;1743992;81;21054;-88
2022/02/16 09:23:49;;;;;;;58.73;27.82;;;;;;;3.04;100.00;101749.69;1767231;80;21499;-85
2022/02/16 09:26:16;;;;;;;61.68;29.60;;;;;;;3.00;100.00;101753.23;1736323;80;21035;-86
2022/02/16 09:28:44;;;;;;;75.15;26.15;;;;;;;2.67;100.00;101748.86;1738556;82;21131;-86
2022/02/16 09:31:11;;;;;;;61.23;26.97;;;;;;;2.32;100.00;101734.25;1752259;80;21017;-87
2022/02/16 09:33:39;;;;;;;41.85;23.92;;;;;;;2.04;100.00;101736.99;1756415;80;21052;-84
2022/02/16 09:36:07;;;;;;;48.92;24.57;;;;;;;1.84;100.00;101730.16;1774966;80;21210;-85
2022/02/16 09:38:34;;;;;;;46.80;22.70;;;;;;;1.71;100.00;101730.39;1756405;80;21053;-84
2022/02/16 09:41:08;;;;;;;31.97;20.55;;;;;;;1.71;100.00;101728.27;1734530;81;21092;-84
2022/02/16 09:43:35;;;;;;;42.00;22.22;;;;;;;1.72;100.00;101728.23;1760152;80;21075;-82
2022/02/16 09:46:03;;;;;;;31.62;21.12;;;;;;;1.72;100.00;101728.23;1750332;79;21086;-83
2022/02/16 09:48:33;;;;;;;30.70;21.77;;;;;;;1.76;100.00;101725.16;1767193;80;21683;-85
2022/02/16 09:50:59;;;;;;;39.58;22.42;;;;;;;1.73;100.00;101718.37;1749428;81;21006;-88
2022/02/16 09:53:27;;;;;;;31.60;19.80;;;;;;;1.71;100.00;101712.87;1748824;81;21050;-89
2022/02/16 09:55:54;;;;;;;34.98;22.13;;;;;;;1.73;100.00;101709.80;1750729;81;21034;-84
2022/02/16 09:58:22;;;;;;;31.68;20.35;;;;;;;1.73;100.00;101708.52;1752795;81;21021;-83
2022/02/16 10:01:12;;;;;;;33.88;21.50;;;;;;;1.69;100.00;101708.19;1728146;81;21146;-83
2022/02/16 10:04:04;;;;;;;34.60;20.55;;;;;;;1.69;100.00;101703.05;1760065;80;21057;-83
2022/02/16 10:06:39;;;;;;;38.75;19.12;;;;;;;1.70;100.00;101694.48;1752865;81;21061;-83
2022/02/16 10:09:07;;;;;;;28.90;17.92;;;;;;;1.76;100.00;101690.94;1729459;81;21029;-83
2022/02/16 10:11:38;;;;;;;26.73;17.30;;;;;;;1.85;100.00;101681.31;1744304;81;21033;-83
2022/02/16 10:14:17;;;;;;;25.82;17.82;;;;;;;1.89;100.00;101675.22;1742561;81;21103;-87
2022/02/16 10:16:45;;;;;;;29.20;18.00;;;;;;;1.94;100.00;101669.98;1743542;81;21552;-82
2022/02/16 10:19:12;;;;;;;33.85;17.55;;;;;;;2.02;100.00;101665.52;1767087;80;21107;-82
2022/02/16 10:22:00;;;;;;;33.45;19.05;;;;;;;2.02;100.00;101665.52;1751361;81;21108;-82
2022/02/16 10:24:28;;;;;;;25.20;17.42;;;;;;;2.11;100.00;101655.48;1739703;81;21059;-82
2022/02/16 10:27:00;;;;;;;27.07;18.92;;;;;;;2.15;100.00;101652.41;1767252;80;21799;-82
2022/02/16 10:29:28;;;;;;;26.55;18.80;;;;;;;2.12;100.00;101650.76;1740614;81;21061;-82
2022/02/16 10:31:58;;;;;;;21.20;16.77;;;;;;;2.09;100.00;101649.53;1730202;81;21117;-84
2022/02/16 10:34:57;;;;;;;28.80;17.98;;;;;;;2.10;100.00;101656.36;1767664;81;21068;-82
2022/02/16 10:37:38;;;;;;;23.98;17.60;;;;;;;2.10;100.00;101643.52;1730681;81;21577;-82
2022/02/16 10:40:14;;;;;;;21.53;16.33;;;;;;;2.17;100.00;101644.19;1745964;80;21093;-82
2022/02/16 10:42:59;;;;;;;20.12;15.50;;;;;;;2.26;100.00;101643.98;1756282;80;21027;-81
2022/02/16 10:45:30;;;;;;;25.48;15.03;;;;;;;2.36;100.00;101634.34;1749676;81;21005;-82
2022/02/16 10:48:06;;;;;;;24.72;15.10;;;;;;;2.46;100.00;101638.81;1743957;81;22822;-84
2022/02/16 10:50:47;;;;;;;24.47;14.85;;;;;;;2.63;100.00;101619.95;1738823;81;21016;-86
2022/02/16 10:53:29;;;;;;;24.45;13.95;;;;;;;2.63;100.00;101619.95;1734746;81;21630;-82
2022/02/16 10:55:57;;;;;;;17.87;13.80;;;;;;;2.85;100.00;101614.23;1756303;80;21540;-85
2022/02/16 10:58:27;;;;;;;17.45;13.43;;;;;;;2.85;100.00;101614.23;1767624;81;21446;-83
2022/02/16 11:00:57;;;;;;;17.25;12.70;;;;;;;2.91;100.00;101614.06;1758410;81;21053;-85
2022/02/16 11:03:39;;;;;;;18.05;12.88;;;;;;;3.06;100.00;101610.23;1733079;81;21068;-85
2022/02/16 11:06:08;;;;;;;26.33;12.82;;;;;;;3.08;100.00;101603.33;1719357;81;21975;-82
2022/02/16 11:08:37;;;;;;;58.42;15.32;;;;;;;3.11;100.00;101595.50;1740154;81;21014;-82
2022/02/16 11:11:05;;;;;;;61.48;17.30;;;;;;;3.32;100.00;101599.66;1761257;81;21048;-83